Hlavní strana
METAR-TAF:

METAR-TAF

Letiště :

Murray, Kentucky, Spojené státy americké

zeměpisná šířka: 36-39-52N, zeměpisná délka: 088-22-22W, výška: 176 m

Aktuální stav počasí

Zpráva byla vytvořena před 18 minutami, v 03:55 UTC
Jihojihovýchodní vítr 3 kt
Teplota 7°C
Vlhkost vzduchu 81%
Tlak 1021 hPa
Viditelnost: 16.1 km
Jasno

METAR: KCEY 180355Z AUTO 16003KT 10SM CLR 07/04 A3015 RMK AO1

Čas: 22:13 (04:13 UTC)


TAF: chybějící

Stav a předpovědi počasí z více než 4 000 letišť (zprávy METAR a TAF).

Červené a žluté tečky na mapě představují dostupné meteorologické stanice.

Když kurzor umístíte na tečku, zobrazí se název stanice.

Pak kliknutím zobrazíte stav a předpověď počasí.

Chcete-li změnit mapu, kliknutím na zelené tlačítko se znaménkem +mapu přiblížíte, kliknutím na zelené tlačítko se znaménkem – mapu oddálíte a kliknutím na zelené šipky přejdete na sousední mapy.


METAR-TAF: